Time;durP1;ratioP1;P1;durP2;ratioP2;P2;SDS_P1;SDS_P2;PMS_P1;PMS_P2;Temp;Humidity;BMP_temperature;BMP_pressure;BME280_temperature;BME280_humidity;BME280_pressure;Samples;Min_cycle;Max_cycle;Signal;HPM_P1;HPM_P2
2023/06/10 00:00:43;;;;;;;;;16.00;14.67;;;;;27.48;43.05;100122.94;6261218;22;45502;-83
2023/06/10 00:03:10;;;;;;;;;15.67;14.00;;;;;27.49;43.41;100125.56;6287482;22;45754;-82
2023/06/10 00:05:39;;;;;;;;;14.00;13.00;;;;;27.43;43.56;100122.34;6286765;22;45342;-84
2023/06/10 00:08:08;;;;;;;;;13.33;13.00;;;;;27.45;43.50;100128.59;6286689;22;45302;-84
2023/06/10 00:10:35;;;;;;;;;15.00;15.00;;;;;27.41;43.23;100119.75;6287329;22;45419;-84
2023/06/10 00:13:03;;;;;;;;;14.00;14.00;;;;;27.42;43.92;100126.06;6259934;22;47279;-84
2023/06/10 00:15:29;;;;;;;;;15.00;13.00;;;;;27.43;43.55;100127.81;6286340;22;45097;-84
2023/06/10 00:17:55;;;;;;;;;14.00;14.00;;;;;27.39;43.68;100129.88;6260587;22;45302;-84
2023/06/10 00:20:23;;;;;;;;;16.00;16.00;;;;;27.40;43.86;100136.22;6261588;22;45450;-84
2023/06/10 00:22:52;;;;;;;;;17.33;15.67;;;;;27.41;43.88;100129.75;6285601;22;47093;-83
2023/06/10 00:25:18;;;;;;;;;17.33;15.67;;;;;27.35;44.47;100139.25;6286759;22;45278;-83
2023/06/10 00:27:44;;;;;;;;;16.67;16.67;;;;;27.28;44.73;100116.91;6258874;22;45658;-83
2023/06/10 00:30:10;;;;;;;;;17.67;17.67;;;;;27.37;44.34;100133.66;6258632;22;45510;-85
2023/06/10 00:32:36;;;;;;;;;18.00;18.00;;;;;27.33;44.07;100141.22;6285874;22;45355;-84
2023/06/10 00:35:06;;;;;;;;;16.00;16.00;;;;;27.39;44.71;100139.91;6287848;22;45335;-83
2023/06/10 00:37:34;;;;;;;;;15.67;15.00;;;;;27.27;44.16;100128.84;6261670;22;45310;-83
2023/06/10 00:40:52;;;;;;;;;14.00;14.00;;;;;27.40;44.66;100138.94;6259678;22;45334;-83
2023/06/10 00:43:18;;;;;;;;;15.33;15.00;;;;;27.26;44.48;100142.56;6282292;22;46243;-83
2023/06/10 00:45:46;;;;;;;;;15.00;15.00;;;;;27.27;44.56;100142.47;6283213;22;45442;-84
2023/06/10 00:48:12;;;;;;;;;14.00;12.33;;;;;27.21;45.11;100145.59;6286302;22;45294;-84
2023/06/10 00:50:40;;;;;;;;;13.67;12.67;;;;;27.20;45.67;100151.13;6286045;22;45474;-84
2023/06/10 00:53:06;;;;;;;;;14.67;13.33;;;;;27.00;45.03;100155.13;6260390;22;47377;-83
2023/06/10 00:55:32;;;;;;;;;13.67;13.67;;;;;26.93;45.15;100150.06;6259235;22;45319;-83
2023/06/10 00:57:59;;;;;;;;;14.00;14.00;;;;;26.93;45.37;100155.53;6287269;22;45415;-83
2023/06/10 01:00:24;;;;;;;;;15.67;14.33;;;;;26.87;46.17;100155.06;6288527;22;45437;-83
2023/06/10 01:02:53;;;;;;;;;9.67;9.67;;;;;26.88;46.38;100157.66;6286231;22;46454;-83
2023/06/10 01:05:20;;;;;;;;;10.67;10.67;;;;;26.73;46.17;100158.66;6287384;22;45313;-83
2023/06/10 01:08:05;;;;;;;;;9.33;8.67;;;;;26.73;46.39;100148.59;6288371;22;45298;-83
2023/06/10 01:10:35;;;;;;;;;13.33;12.67;;;;;26.63;46.72;100154.75;6288294;22;45298;-83
2023/06/10 01:13:11;;;;;;;;;11.33;11.00;;;;;26.65;46.76;100155.53;6287641;22;45719;-83
2023/06/10 01:15:37;;;;;;;;;10.33;10.33;;;;;26.55;46.86;100158.78;6261224;22;45877;-83
2023/06/10 01:18:08;;;;;;;;;13.00;11.67;;;;;26.55;46.85;100161.50;6260800;22;45368;-83
2023/06/10 01:20:36;;;;;;;;;11.67;11.33;;;;;26.52;47.14;100161.69;6260511;22;45504;-83
2023/06/10 01:23:03;;;;;;;;;14.00;12.67;;;;;26.45;46.83;100154.00;6285393;22;47598;-83
2023/06/10 01:25:32;;;;;;;;;10.33;10.33;;;;;26.42;46.88;100154.16;6285211;22;45236;-84
2023/06/10 01:28:12;;;;;;;;;11.33;10.67;;;;;26.46;47.34;100150.28;6285797;22;44757;-84
2023/06/10 01:31:11;;;;;;;;;9.33;9.33;;;;;26.41;48.20;100153.28;6284511;22;45267;-84
2023/06/10 01:33:42;;;;;;;;;11.33;11.33;;;;;26.32;48.10;100148.41;6284046;22;46698;-83
2023/06/10 01:36:08;;;;;;;;;11.33;11.00;;;;;26.25;48.39;100152.47;6287447;22;45675;-82
2023/06/10 01:38:41;;;;;;;;;9.33;9.33;;;;;26.25;48.08;100155.19;6259980;22;45424;-83
2023/06/10 01:41:08;;;;;;;;;10.67;10.67;;;;;26.15;48.61;100152.16;6260410;22;45322;-84
2023/06/10 01:43:34;;;;;;;;;13.67;11.67;;;;;26.09;48.25;100145.22;6286870;22;45290;-83
2023/06/10 01:46:00;;;;;;;;;14.00;11.67;;;;;26.02;49.01;100142.97;6277562;22;45314;-83
2023/06/10 01:48:25;;;;;;;;;10.67;10.33;;;;;26.03;48.96;100156.47;6260072;22;45403;-83
2023/06/10 01:50:50;;;;;;;;;11.67;10.67;;;;;25.97;49.44;100154.13;6258450;22;45358;-83
2023/06/10 01:53:16;;;;;;;;;14.33;12.00;;;;;25.91;49.37;100155.34;6258683;22;46353;-83
2023/06/10 01:55:41;;;;;;;;;11.00;11.00;;;;;25.91;49.60;100162.66;6256930;22;45258;-83
2023/06/10 01:58:07;;;;;;;;;14.67;12.67;;;;;25.88;49.74;100166.41;6258269;22;45270;-84
2023/06/10 02:00:32;;;;;;;;;11.33;9.67;;;;;25.83;50.17;100170.38;6254657;22;45497;-84
2023/06/10 02:02:57;;;;;;;;;8.67;7.67;;;;;25.80;50.38;100174.16;6231190;22;46507;-84
2023/06/10 02:05:23;;;;;;;;;12.00;11.00;;;;;25.76;51.00;100169.88;6255916;22;45352;-84
2023/06/10 02:07:48;;;;;;;;;9.67;9.67;;;;;25.73;51.04;100178.19;6231802;22;44784;-83
2023/06/10 02:10:13;;;;;;;;;8.67;8.67;;;;;25.69;51.09;100180.25;6257203;22;45436;-83
2023/06/10 02:12:39;;;;;;;;;9.67;9.67;;;;;25.66;51.54;100180.41;6256206;22;46987;-83
2023/06/10 02:15:54;;;;;;;;;11.33;10.33;;;;;25.72;50.98;100173.75;6255664;22;45294;-84
2023/06/10 02:18:27;;;;;;;;;10.67;10.33;;;;;25.65;51.41;100173.22;6256579;22;44946;-83
2023/06/10 02:20:53;;;;;;;;;11.33;11.33;;;;;25.58;51.64;100173.66;6257618;22;45300;-83
2023/06/10 02:23:19;;;;;;;;;12.33;12.33;;;;;25.53;51.54;100177.53;6256657;22;45734;-83
2023/06/10 02:25:44;;;;;;;;;15.33;13.67;;;;;25.52;51.93;100177.59;6256673;22;45856;-83
2023/06/10 02:28:10;;;;;;;;;12.33;11.00;;;;;25.48;51.87;100179.63;6229175;22;45476;-84
2023/06/10 02:30:35;;;;;;;;;10.00;9.67;;;;;25.46;52.08;100175.22;6256072;22;44791;-83
2023/06/10 02:33:01;;;;;;;;;13.67;13.00;;;;;25.45;52.38;100181.63;6229254;22;48156;-84
2023/06/10 02:35:26;;;;;;;;;10.33;10.00;;;;;25.42;52.57;100173.66;6257299;22;45259;-83
2023/06/10 02:37:51;;;;;;;;;12.33;12.00;;;;;25.35;52.88;100171.28;6256498;22;45296;-82
2023/06/10 02:40:24;;;;;;;;;10.67;10.33;;;;;25.37;53.07;100175.75;6255449;22;45243;-82
2023/06/10 02:42:49;;;;;;;;;9.33;9.00;;;;;25.32;53.32;100173.28;6253393;22;45938;-84
2023/06/10 02:45:15;;;;;;;;;10.00;10.00;;;;;25.31;53.14;100183.31;6250939;22;45466;-83
2023/06/10 02:47:41;;;;;;;;;13.00;10.33;;;;;25.31;53.86;100180.59;6275619;22;45898;-84
2023/06/10 02:50:07;;;;;;;;;8.00;8.00;;;;;25.22;53.51;100178.38;6253973;22;45294;-83
2023/06/10 02:52:33;;;;;;;;;10.00;10.00;;;;;25.25;53.92;100180.03;6228164;22;47081;-84
2023/06/10 02:54:59;;;;;;;;;10.67;10.00;;;;;25.15;54.07;100185.97;6255283;22;45839;-84
2023/06/10 02:57:25;;;;;;;;;11.00;11.00;;;;;25.18;54.00;100187.63;6253501;22;44732;-84
2023/06/10 02:59:53;;;;;;;;;11.67;9.00;;;;;25.11;54.22;100181.66;6256317;22;45723;-83
2023/06/10 03:02:18;;;;;;;;;12.00;12.00;;;;;25.07;54.31;100181.91;6252825;22;46785;-83
2023/06/10 03:04:45;;;;;;;;;12.67;10.67;;;;;25.12;53.82;100182.53;6254038;22;45315;-83
2023/06/10 03:07:11;;;;;;;;;12.00;12.00;;;;;25.03;53.79;100173.03;6255201;22;45335;-83
2023/06/10 03:09:39;;;;;;;;;11.67;11.67;;;;;25.07;53.72;100184.66;6255850;22;45846;-83
2023/06/10 03:12:05;;;;;;;;;10.33;10.33;;;;;25.04;53.63;100184.78;6256888;22;46185;-83
2023/06/10 03:14:31;;;;;;;;;11.00;11.00;;;;;24.99;54.05;100181.47;6256244;22;45344;-83
2023/06/10 03:20:18;;;;;;;;;10.67;10.67;;;;;24.93;54.53;100183.53;6255963;22;45488;-83
2023/06/10 03:22:43;;;;;;;;;9.67;9.00;;;;;24.88;55.17;100187.47;6255608;22;46011;-83
2023/06/10 03:25:13;;;;;;;;;10.67;10.67;;;;;24.81;55.10;100189.66;6257454;22;45688;-84
2023/06/10 03:27:40;;;;;;;;;10.67;10.67;;;;;24.77;55.15;100196.22;6257295;22;45410;-83
2023/06/10 03:30:06;;;;;;;;;11.00;10.00;;;;;24.71;56.33;100194.69;6256971;22;45358;-84
2023/06/10 03:32:32;;;;;;;;;11.67;11.67;;;;;24.60;55.69;100186.22;6256444;22;46715;-82
2023/06/10 03:34:57;;;;;;;;;10.00;10.00;;;;;24.61;55.76;100192.56;6229299;22;45390;-83
2023/06/10 03:37:24;;;;;;;;;11.67;11.33;;;;;24.61;55.73;100187.13;6254797;22;45296;-84
2023/06/10 03:39:50;;;;;;;;;9.00;9.00;;;;;24.62;55.95;100189.78;6254045;22;45275;-83
2023/06/10 03:42:15;;;;;;;;;12.67;11.00;;;;;24.59;56.05;100194.47;6254232;22;46741;-82
2023/06/10 03:44:40;;;;;;;;;10.33;10.33;;;;;24.54;56.09;100186.53;6254674;22;45243;-82
2023/06/10 03:47:07;;;;;;;;;13.33;12.00;;;;;24.51;56.54;100184.00;6273890;22;45505;-83
2023/06/10 03:52:54;;;;;;;;;10.67;10.33;;;;;24.45;57.10;100195.19;6286909;22;44841;-83
2023/06/10 03:55:21;;;;;;;;;10.00;10.00;;;;;24.42;57.02;100198.03;6286530;22;45269;-83
2023/06/10 03:57:48;;;;;;;;;9.67;9.67;;;;;24.35;57.08;100186.63;6285895;22;44783;-82
2023/06/10 04:00:15;;;;;;;;;12.67;11.67;;;;;24.32;57.40;100192.22;6259654;22;45481;-82
2023/06/10 04:06:02;;;;;;;;;12.00;12.00;;;;;24.29;57.87;100197.81;6286188;22;45227;-83
2023/06/10 04:08:32;;;;;;;;;9.33;9.33;;;;;24.33;57.38;100204.84;6286400;22;45331;-84
2023/06/10 04:10:58;;;;;;;;;10.33;10.33;;;;;24.28;57.61;100196.03;6286146;22;45287;-83
2023/06/10 04:13:23;;;;;;;;;10.33;9.67;;;;;24.27;57.44;100205.16;6285635;22;46835;-82
2023/06/10 04:15:49;;;;;;;;;13.33;11.33;;;;;24.25;57.67;100207.06;6287153;22;45734;-82
2023/06/10 04:18:14;;;;;;;;;11.00;9.00;;;;;24.29;57.48;100209.53;6287335;22;45275;-83
2023/06/10 04:20:40;;;;;;;;;11.00;11.00;;;;;24.29;57.87;100204.09;6283427;22;45367;-83
2023/06/10 04:23:08;;;;;;;;;10.33;10.33;;;;;24.39;57.39;100211.81;6285764;22;45309;-83
2023/06/10 04:25:35;;;;;;;;;9.67;9.67;;;;;24.41;57.23;100213.47;6284446;22;45360;-84
2023/06/10 04:28:00;;;;;;;;;11.67;11.00;;;;;24.37;57.27;100214.59;6284871;22;45340;-83
2023/06/10 04:30:26;;;;;;;;;12.33;11.67;;;;;24.40;56.75;100211.72;6286915;22;45353;-83
2023/06/10 04:32:52;;;;;;;;;11.67;11.00;;;;;24.45;56.63;100212.34;6286530;22;45471;-83
2023/06/10 04:35:17;;;;;;;;;10.67;9.00;;;;;24.51;56.78;100212.06;6259388;22;45365;-83
2023/06/10 04:37:43;;;;;;;;;10.00;10.00;;;;;24.53;56.42;100218.31;6256238;22;45381;-83
2023/06/10 04:40:09;;;;;;;;;11.67;11.33;;;;;24.60;56.54;100224.28;6257536;22;45430;-83
2023/06/10 04:42:35;;;;;;;;;9.00;9.00;;;;;24.56;56.31;100222.69;6285187;22;45734;-83
2023/06/10 04:45:02;;;;;;;;;7.00;7.00;;;;;24.58;55.90;100231.66;6284327;22;45352;-83
2023/06/10 04:47:28;;;;;;;;;8.33;8.33;;;;;24.53;56.56;100233.75;6260754;22;45429;-82
2023/06/10 04:49:53;;;;;;;;;9.33;9.33;;;;;24.57;56.57;100239.91;6203546;22;45338;-83
2023/06/10 04:52:19;;;;;;;;;11.33;11.33;;;;;24.61;56.09;100241.50;6255468;22;45392;-83
2023/06/10 04:54:45;;;;;;;;;8.00;8.00;;;;;24.64;55.63;100241.31;6254064;22;45402;-83
2023/06/10 04:57:11;;;;;;;;;11.00;11.00;;;;;24.69;56.11;100239.25;6255080;22;45402;-83
2023/06/10 04:59:38;;;;;;;;;11.00;9.67;;;;;24.78;55.69;100244.19;6228567;22;45299;-83
2023/06/10 05:02:06;;;;;;;;;9.00;9.00;;;;;24.90;55.66;100248.09;6253439;22;46965;-83
2023/06/10 05:04:34;;;;;;;;;10.67;9.00;;;;;24.89;55.60;100241.78;6253222;22;45436;-83
2023/06/10 05:07:00;;;;;;;;;13.33;13.33;;;;;24.88;55.60;100245.47;6252382;22;45472;-82
2023/06/10 05:09:26;;;;;;;;;8.67;8.67;;;;;24.95;55.12;100244.19;6253470;22;45303;-82
2023/06/10 05:11:53;;;;;;;;;11.33;10.00;;;;;24.97;55.09;100245.97;6253780;22;45663;-83
2023/06/10 05:14:21;;;;;;;;;7.67;7.67;;;;;25.03;55.03;100243.78;6226892;22;45639;-82
2023/06/10 05:16:48;;;;;;;;;11.33;9.67;;;;;25.08;55.31;100240.81;6228139;22;45365;-83
2023/06/10 05:19:13;;;;;;;;;7.00;7.00;;;;;25.15;54.81;100242.25;6255097;22;45370;-83
2023/06/10 05:21:39;;;;;;;;;13.67;10.00;;;;;25.20;55.03;100240.13;6255485;22;45989;-84
2023/06/10 05:24:04;;;;;;;;;10.67;10.67;;;;;25.30;54.56;100241.41;6253253;22;45516;-83
2023/06/10 05:26:31;;;;;;;;;11.67;10.00;;;;;25.37;54.20;100250.16;6255226;22;45362;-82
2023/06/10 05:28:58;;;;;;;;;9.00;9.00;;;;;25.40;54.19;100249.97;6228552;22;45741;-83
2023/06/10 05:31:24;;;;;;;;;7.00;7.00;;;;;25.49;54.23;100254.00;6255362;22;47157;-84
2023/06/10 05:33:49;;;;;;;;;12.00;12.00;;;;;25.60;54.09;100258.88;6228798;22;45345;-84
2023/06/10 05:36:16;;;;;;;;;7.67;7.00;;;;;25.72;53.81;100255.44;6254265;22;45681;-84
2023/06/10 05:38:41;;;;;;;;;8.00;8.00;;;;;25.69;53.54;100264.69;6256817;22;45337;-83
2023/06/10 05:41:07;;;;;;;;;10.33;10.33;;;;;25.72;53.73;100253.59;6255294;22;45257;-84
2023/06/10 05:43:32;;;;;;;;;9.67;9.67;;;;;25.83;53.70;100257.53;6256573;22;45318;-84
2023/06/10 05:45:58;;;;;;;;;10.00;10.00;;;;;25.90;53.30;100256.28;6230400;22;45601;-83
2023/06/10 05:48:24;;;;;;;;;9.33;8.67;;;;;26.01;53.06;100253.78;6253760;22;45418;-83
2023/06/10 05:50:53;;;;;;;;;10.33;10.00;;;;;26.15;53.45;100261.16;6229837;22;47105;-83
2023/06/10 05:53:18;;;;;;;;;9.00;7.67;;;;;26.13;52.83;100263.97;6254300;22;45251;-83
2023/06/10 05:55:45;;;;;;;;;10.00;10.00;;;;;26.20;52.95;100259.06;6254406;22;45589;-83
2023/06/10 05:58:12;;;;;;;;;9.00;8.33;;;;;26.20;52.38;100258.16;6255118;22;45319;-84
2023/06/10 06:00:41;;;;;;;;;8.33;8.33;;;;;26.33;52.46;100259.22;6255809;22;45536;-83
2023/06/10 06:03:13;;;;;;;;;8.33;8.00;;;;;26.44;52.56;100256.75;6255047;22;45302;-83
2023/06/10 06:05:38;;;;;;;;;10.00;8.67;;;;;26.44;52.48;100262.19;6228078;22;45622;-83
2023/06/10 06:08:04;;;;;;;;;8.33;7.33;;;;;26.52;51.83;100254.44;6257565;22;45614;-83
2023/06/10 06:10:30;;;;;;;;;7.67;7.67;;;;;26.60;51.65;100266.75;6227953;22;47825;-83
2023/06/10 06:12:55;;;;;;;;;9.67;9.67;;;;;26.62;51.43;100270.25;6253526;22;44855;-83
2023/06/10 06:15:21;;;;;;;;;8.67;8.00;;;;;26.77;51.81;100265.72;6256748;22;44874;-84
2023/06/10 06:17:46;;;;;;;;;12.00;12.00;;;;;26.87;51.31;100265.06;6254839;22;44789;-83
2023/06/10 06:20:13;;;;;;;;;10.67;9.33;;;;;26.93;50.84;100267.41;6229196;22;46656;-83
2023/06/10 06:22:42;;;;;;;;;8.67;8.67;;;;;26.87;50.78;100265.06;6256767;22;45283;-83
2023/06/10 06:25:08;;;;;;;;;10.33;10.33;;;;;26.93;51.48;100272.88;6257265;22;45362;-83
2023/06/10 06:27:34;;;;;;;;;9.67;8.67;;;;;27.03;51.44;100270.47;6257454;22;45357;-83
2023/06/10 06:29:59;;;;;;;;;11.67;10.67;;;;;27.02;51.38;100273.28;6228183;22;46704;-84
2023/06/10 06:32:27;;;;;;;;;10.67;10.00;;;;;26.90;51.03;100259.41;6255726;22;45323;-84
2023/06/10 06:34:54;;;;;;;;;9.33;9.00;;;;;26.96;51.45;100265.47;6229441;22;45343;-83
2023/06/10 06:37:25;;;;;;;;;13.33;10.00;;;;;27.06;51.15;100280.31;6258039;22;45326;-83
2023/06/10 06:39:52;;;;;;;;;10.00;10.00;;;;;27.08;51.07;100275.63;6253225;22;47365;-83
2023/06/10 06:42:18;;;;;;;;;8.67;8.67;;;;;27.12;50.97;100274.47;6252313;22;45464;-83
2023/06/10 06:48:05;;;;;;;;;10.00;10.00;;;;;27.23;50.94;100282.91;6255460;22;45730;-85
2023/06/10 06:50:30;;;;;;;;;14.00;9.67;;;;;27.21;51.36;100284.81;6227299;22;47746;-83
2023/06/10 06:52:56;;;;;;;;;9.00;9.00;;;;;27.25;51.40;100280.94;6254983;22;45357;-84
2023/06/10 06:55:21;;;;;;;;;9.67;9.33;;;;;27.34;51.41;100279.47;6255777;22;44706;-84
2023/06/10 06:57:46;;;;;;;;;7.67;7.00;;;;;27.31;51.03;100283.28;6255645;22;45384;-83
2023/06/10 07:00:12;;;;;;;;;12.67;11.00;;;;;27.28;51.28;100297.13;6255417;22;45361;-84
2023/06/10 07:02:37;;;;;;;;;11.33;11.00;;;;;27.12;51.12;100299.91;6252386;22;45366;-84
2023/06/10 07:05:03;;;;;;;;;9.33;8.67;;;;;27.13;51.77;100300.78;6255849;22;44725;-83
2023/06/10 07:07:29;;;;;;;;;9.33;9.00;;;;;27.14;51.76;100297.94;6257439;22;45231;-83
2023/06/10 07:09:57;;;;;;;;;7.67;7.67;;;;;27.16;51.78;100295.13;6256633;22;46248;-83
2023/06/10 07:12:23;;;;;;;;;11.33;11.33;;;;;27.22;51.21;100304.78;6257827;22;45346;-83
2023/06/10 07:14:50;;;;;;;;;9.67;9.67;;;;;27.37;51.66;100300.25;6257456;22;45768;-84
2023/06/10 07:17:17;;;;;;;;;10.67;9.00;;;;;27.51;50.92;100302.97;6229604;22;45549;-83
2023/06/10 07:19:43;;;;;;;;;8.67;8.00;;;;;27.49;50.79;100296.72;6229058;22;48174;-83
2023/06/10 07:22:09;;;;;;;;;10.00;10.00;;;;;27.46;51.08;100297.81;6228821;22;45568;-82
2023/06/10 07:24:34;;;;;;;;;10.00;10.00;;;;;27.58;51.38;100303.50;6230017;22;45408;-83
2023/06/10 07:27:01;;;;;;;;;10.00;10.00;;;;;27.73;50.52;100308.84;6258517;22;45336;-82
2023/06/10 07:29:26;;;;;;;;;11.67;10.00;;;;;27.67;50.65;100301.06;6229625;22;47521;-83
2023/06/10 07:31:53;;;;;;;;;7.00;7.00;;;;;27.73;50.62;100295.19;6254377;22;45619;-83
2023/06/10 07:34:19;;;;;;;;;8.00;8.00;;;;;27.91;51.03;100309.53;6226491;22;45395;-83
2023/06/10 07:36:47;;;;;;;;;7.33;7.33;;;;;28.07;50.56;100303.06;6254581;22;45361;-83
2023/06/10 07:39:13;;;;;;;;;7.00;7.00;;;;;28.07;50.85;100306.66;6227199;22;47027;-83
2023/06/10 07:41:38;;;;;;;;;11.00;9.00;;;;;28.17;50.43;100317.88;6256168;22;45294;-83
2023/06/10 07:44:03;;;;;;;;;6.33;6.33;;;;;28.11;50.40;100316.41;6256576;22;45072;-83
2023/06/10 07:46:29;;;;;;;;;9.33;8.33;;;;;28.07;50.79;100323.06;6232655;22;45892;-82
2023/06/10 07:48:54;;;;;;;;;8.33;8.33;;;;;28.05;50.88;100316.81;6257010;22;46823;-83
2023/06/10 07:51:21;;;;;;;;;9.33;9.33;;;;;28.11;51.23;100319.16;6259556;22;45319;-83
2023/06/10 07:53:47;;;;;;;;;10.33;9.00;;;;;28.16;50.59;100320.69;6259307;22;45279;-83
2023/06/10 07:56:13;;;;;;;;;7.33;7.33;;;;;28.37;51.00;100324.75;6288107;22;45333;-83
2023/06/10 07:58:38;;;;;;;;;10.00;7.33;;;;;28.51;50.02;100316.50;6260953;22;46938;-84
2023/06/10 08:01:04;;;;;;;;;9.67;8.00;;;;;28.55;49.35;100322.66;6287593;22;44745;-83
2023/06/10 08:03:30;;;;;;;;;7.00;6.00;;;;;28.62;50.20;100321.28;6287948;22;45345;-83
2023/06/10 08:05:58;;;;;;;;;7.00;6.00;;;;;28.76;48.88;100328.53;6260336;22;45567;-83
2023/06/10 08:08:23;;;;;;;;;6.33;6.33;;;;;28.77;48.58;100324.81;6287837;22;45239;-83
2023/06/10 08:10:49;;;;;;;;;8.33;8.33;;;;;28.78;48.65;100325.69;6258422;22;45582;-83
2023/06/10 08:13:15;;;;;;;;;7.33;7.33;;;;;28.80;48.72;100330.06;6288077;22;45345;-83
2023/06/10 08:15:40;;;;;;;;;11.00;8.00;;;;;28.90;48.82;100331.22;6288025;22;45314;-83
2023/06/10 08:18:06;;;;;;;;;7.33;7.33;;;;;28.92;48.69;100337.47;6261716;22;47311;-83
2023/06/10 08:20:32;;;;;;;;;7.00;7.00;;;;;28.93;48.45;100327.38;6260118;22;45314;-83
2023/06/10 08:22:57;;;;;;;;;8.00;8.00;;;;;29.02;48.15;100328.59;6288383;22;45400;-83
2023/06/10 08:25:29;;;;;;;;;8.67;8.67;;;;;29.09;47.87;100332.66;6287578;22;45552;-83
2023/06/10 08:27:56;;;;;;;;;9.67;9.67;;;;;29.08;47.64;100339.09;6289241;22;45353;-83
2023/06/10 08:30:23;;;;;;;;;6.00;6.00;;;;;29.12;47.67;100333.34;6288824;22;45325;-83
2023/06/10 08:32:49;;;;;;;;;8.67;7.67;;;;;29.06;47.70;100327.38;6288232;22;45453;-83
2023/06/10 08:35:15;;;;;;;;;6.33;6.33;;;;;29.11;47.84;100331.59;6285424;22;44837;-84
2023/06/10 08:37:40;;;;;;;;;7.00;7.00;;;;;29.12;47.30;100327.00;6286728;22;45320;-83
2023/06/10 08:40:07;;;;;;;;;10.00;8.67;;;;;29.09;47.43;100333.53;6284221;22;45311;-83
2023/06/10 08:42:48;;;;;;;;;10.00;8.33;;;;;29.15;47.60;100331.38;6286578;22;45393;-83
2023/06/10 08:45:23;;;;;;;;;7.00;6.00;;;;;29.12;47.84;100336.06;6288075;22;45447;-83
2023/06/10 08:47:53;;;;;;;;;10.00;10.00;;;;;29.09;47.66;100339.00;6237749;22;46915;-83
2023/06/10 08:50:19;;;;;;;;;9.33;8.00;;;;;29.10;47.36;100343.50;6229339;22;45279;-83
2023/06/10 08:52:50;;;;;;;;;8.33;8.33;;;;;29.08;47.58;100341.84;6228197;22;45708;-84
2023/06/10 08:55:37;;;;;;;;;9.00;8.00;;;;;29.04;47.91;100332.09;6230541;22;45419;-84
2023/06/10 08:58:03;;;;;;;;;10.00;9.00;;;;;29.09;48.21;100338.13;6229647;22;46970;-84
2023/06/10 09:00:30;;;;;;;;;10.00;8.00;;;;;29.16;48.38;100350.44;6256830;22;44765;-84
2023/06/10 09:02:57;;;;;;;;;8.33;8.00;;;;;29.32;48.04;100340.16;6230878;22;45441;-84
2023/06/10 09:05:23;;;;;;;;;8.33;8.33;;;;;29.45;47.88;100348.41;6229182;22;44722;-82
2023/06/10 09:07:48;;;;;;;;;8.00;7.67;;;;;29.37;47.21;100347.16;6255652;22;45407;-83
2023/06/10 09:10:14;;;;;;;;;9.00;8.00;;;;;29.32;47.93;100342.88;6228687;22;45810;-83
2023/06/10 09:12:40;;;;;;;;;8.33;8.00;;;;;29.36;47.72;100331.72;6254443;22;45416;-83
2023/06/10 09:15:08;;;;;;;;;7.00;7.00;;;;;29.52;47.67;100333.25;6255868;22;45055;-83
2023/06/10 09:17:36;;;;;;;;;8.00;8.00;;;;;29.49;47.08;100341.72;6255645;22;45299;-82
2023/06/10 09:20:02;;;;;;;;;7.33;7.33;;;;;29.51;47.51;100331.53;6253472;22;45431;-82
2023/06/10 09:22:28;;;;;;;;;5.00;5.00;;;;;29.62;47.40;100338.94;6255068;22;45567;-83
2023/06/10 09:25:05;;;;;;;;;10.00;9.00;;;;;29.82;47.33;100347.63;6254188;22;45319;-83
2023/06/10 09:27:32;;;;;;;;;9.67;9.67;;;;;29.85;47.35;100341.91;6226391;22;47140;-83
2023/06/10 09:29:59;;;;;;;;;10.00;10.00;;;;;29.89;46.11;100348.94;6227974;22;44874;-83
2023/06/10 09:32:26;;;;;;;;;7.00;7.00;;;;;29.78;46.77;100332.41;6255789;22;45338;-83
2023/06/10 09:34:51;;;;;;;;;6.67;6.67;;;;;29.81;46.46;100343.13;6254387;22;45465;-83
2023/06/10 09:37:24;;;;;;;;;7.33;7.33;;;;;29.79;46.23;100342.38;6253262;22;46769;-83
2023/06/10 09:40:04;;;;;;;;;5.00;5.00;;;;;29.66;46.52;100337.75;6254994;22;45338;-83
2023/06/10 09:42:35;;;;;;;;;8.33;8.00;;;;;29.59;46.79;100347.41;6255881;22;45354;-83
2023/06/10 09:45:01;;;;;;;;;6.33;6.33;;;;;29.56;46.46;100336.66;6230065;22;45240;-83
2023/06/10 09:47:26;;;;;;;;;6.00;6.00;;;;;29.68;46.50;100348.59;6255822;22;45304;-83
2023/06/10 09:49:55;;;;;;;;;5.33;4.00;;;;;29.78;46.00;100346.13;6252381;22;45372;-84
2023/06/10 09:52:29;;;;;;;;;8.67;6.00;;;;;29.95;45.11;100343.00;6253798;22;45415;-85
2023/06/10 09:55:07;;;;;;;;;7.33;7.33;;;;;29.99;44.75;100349.13;6255972;22;45524;-83
2023/06/10 09:57:33;;;;;;;;;5.67;5.67;;;;;29.92;45.04;100343.22;6253652;22;45447;-84
2023/06/10 09:59:59;;;;;;;;;4.67;4.67;;;;;30.04;45.83;100346.94;6256656;22;45220;-83
2023/06/10 10:02:24;;;;;;;;;7.33;7.33;;;;;30.15;45.68;100344.25;6229517;22;45355;-84
2023/06/10 10:04:50;;;;;;;;;7.33;7.00;;;;;30.22;45.38;100339.22;6256308;22;45359;-82
2023/06/10 10:07:17;;;;;;;;;7.33;7.33;;;;;30.40;43.80;100354.31;6257375;22;45734;-83
2023/06/10 10:09:42;;;;;;;;;7.00;6.00;;;;;30.37;44.40;100343.56;6254046;22;45833;-82
2023/06/10 10:12:15;;;;;;;;;8.33;6.00;;;;;30.44;43.96;100347.63;6257721;22;44772;-84
2023/06/10 10:14:50;;;;;;;;;8.00;8.00;;;;;30.38;44.01;100341.69;6257447;22;45336;-84
2023/06/10 10:17:16;;;;;;;;;6.00;6.00;;;;;30.31;43.50;100350.38;6257091;22;45039;-84
2023/06/10 10:19:57;;;;;;;;;9.00;9.00;;;;;30.42;44.43;100345.97;6227963;22;45391;-84
2023/06/10 10:22:45;;;;;;;;;8.33;8.00;;;;;30.51;44.12;100331.56;6256373;22;45362;-84
2023/06/10 10:25:38;;;;;;;;;6.67;6.67;;;;;30.60;43.40;100346.44;6256847;22;44673;-83
2023/06/10 10:28:12;;;;;;;;;7.00;7.00;;;;;30.45;43.40;100346.59;6253819;22;46154;-84
2023/06/10 10:30:50;;;;;;;;;7.00;6.67;;;;;30.37;43.80;100332.59;6255670;22;45262;-84
2023/06/10 10:33:19;;;;;;;;;7.00;7.00;;;;;30.42;43.95;100341.38;6228318;22;45408;-83
2023/06/10 10:35:46;;;;;;;;;9.00;8.00;;;;;30.53;43.64;100342.41;6254474;22;44823;-84
2023/06/10 10:38:12;;;;;;;;;6.00;6.00;;;;;30.59;43.80;100341.97;6256235;22;45398;-84
2023/06/10 10:40:39;;;;;;;;;6.00;6.00;;;;;30.66;43.30;100332.25;6256193;22;44834;-84
2023/06/10 10:43:06;;;;;;;;;6.00;6.00;;;;;30.69;42.54;100335.63;6227225;22;45475;-84
2023/06/10 10:45:33;;;;;;;;;6.67;6.67;;;;;30.77;42.93;100343.28;6252290;22;45283;-84
2023/06/10 10:48:07;;;;;;;;;7.33;7.33;;;;;30.83;42.75;100328.22;6226712;22;48153;-84
2023/06/10 10:50:34;;;;;;;;;10.33;9.00;;;;;30.94;43.15;100328.28;6252336;22;45268;-84
2023/06/10 10:53:01;;;;;;;;;9.33;9.00;;;;;31.14;41.49;100323.97;6226835;22;45365;-84
2023/06/10 10:55:31;;;;;;;;;9.00;8.67;;;;;31.09;40.50;100332.56;6252880;22;45339;-84
2023/06/10 10:57:59;;;;;;;;;11.67;10.00;;;;;31.09;40.50;100326.22;6252808;22;47074;-84
2023/06/10 11:00:31;;;;;;;;;11.33;10.67;;;;;31.12;40.78;100334.19;6254540;22;45450;-84
2023/06/10 11:03:06;;;;;;;;;10.33;9.67;;;;;31.03;39.49;100330.31;6254423;22;45333;-84
2023/06/10 11:05:37;;;;;;;;;8.33;8.33;;;;;30.92;40.28;100327.50;6226927;22;45294;-83
2023/06/10 11:08:06;;;;;;;;;8.33;8.33;;;;;30.77;39.96;100317.72;6228691;22;46742;-83
2023/06/10 11:10:50;;;;;;;;;8.00;8.00;;;;;30.84;39.58;100327.19;6257452;22;45273;-83
2023/06/10 11:13:18;;;;;;;;;9.00;7.00;;;;;30.73;39.04;100325.28;6254958;22;45684;-83
2023/06/10 11:15:46;;;;;;;;;7.67;7.67;;;;;30.78;39.73;100330.44;6230204;22;45578;-83
2023/06/10 11:18:23;;;;;;;;;8.67;8.67;;;;;30.73;39.57;100333.53;6253172;22;48173;-83
2023/06/10 11:20:48;;;;;;;;;8.33;8.33;;;;;30.73;39.11;100322.56;6227849;22;45319;-83
2023/06/10 11:26:43;;;;;;;;;6.00;6.00;;;;;30.72;39.95;100318.03;6255397;22;45421;-83
2023/06/10 11:29:09;;;;;;;;;11.33;10.33;;;;;30.68;39.50;100327.50;6254338;22;45803;-83
2023/06/10 11:31:45;;;;;;;;;8.00;8.00;;;;;30.85;39.79;100331.72;6257121;22;45335;-83
2023/06/10 11:34:14;;;;;;;;;11.00;10.00;;;;;30.89;38.95;100325.88;6256450;22;44794;-83
2023/06/10 11:36:45;;;;;;;;;11.00;9.67;;;;;30.90;39.47;100330.41;6258076;22;45162;-83